sensor_id;sensor_type;location;lat;lon;timestamp;pressure;altitude;pressure_sealevel;temperature;humidity
63535;BME280;55128;50.230;18.944;2024-01-06T00:00:41;97403.13;;;1.57;90.85
63535;BME280;55128;50.230;18.944;2024-01-06T00:05:41;97395.75;;;1.41;91.39
63535;BME280;55128;50.230;18.944;2024-01-06T00:10:41;97383.19;;;1.52;90.74
63535;BME280;55128;50.230;18.944;2024-01-06T00:15:42;97380.94;;;1.40;91.43
63535;BME280;55128;50.230;18.944;2024-01-06T00:20:42;97379.34;;;1.34;91.53
63535;BME280;55128;50.230;18.944;2024-01-06T00:25:43;97381.72;;;1.44;91.68
63535;BME280;55128;50.230;18.944;2024-01-06T00:30:43;97379.00;;;1.47;91.34
63535;BME280;55128;50.230;18.944;2024-01-06T00:35:43;97373.16;;;1.67;90.59
63535;BME280;55128;50.230;18.944;2024-01-06T00:40:44;97373.34;;;1.61;90.56
63535;BME280;55128;50.230;18.944;2024-01-06T00:45:44;97377.19;;;1.49;90.28
63535;BME280;55128;50.230;18.944;2024-01-06T00:50:45;97378.13;;;1.46;90.80
63535;BME280;55128;50.230;18.944;2024-01-06T00:55:45;97383.59;;;1.39;90.55
63535;BME280;55128;50.230;18.944;2024-01-06T01:00:45;97384.28;;;1.45;90.26
63535;BME280;55128;50.230;18.944;2024-01-06T01:05:46;97392.94;;;1.47;90.57
63535;BME280;55128;50.230;18.944;2024-01-06T01:10:46;97391.66;;;1.61;89.47
63535;BME280;55128;50.230;18.944;2024-01-06T01:15:46;97399.22;;;1.70;90.51
63535;BME280;55128;50.230;18.944;2024-01-06T01:20:47;97406.38;;;1.63;89.99
63535;BME280;55128;50.230;18.944;2024-01-06T01:25:47;97405.22;;;1.73;89.64
63535;BME280;55128;50.230;18.944;2024-01-06T01:30:48;97407.59;;;1.81;89.33
63535;BME280;55128;50.230;18.944;2024-01-06T01:35:48;97402.28;;;1.84;89.43
63535;BME280;55128;50.230;18.944;2024-01-06T01:40:48;97396.06;;;1.88;88.88
63535;BME280;55128;50.230;18.944;2024-01-06T01:45:53;97390.69;;;1.91;88.70
63535;BME280;55128;50.230;18.944;2024-01-06T01:50:54;97393.75;;;1.78;88.65
63535;BME280;55128;50.230;18.944;2024-01-06T01:55:54;97383.78;;;1.90;89.18
63535;BME280;55128;50.230;18.944;2024-01-06T02:00:56;97399.69;;;1.84;88.51
63535;BME280;55128;50.230;18.944;2024-01-06T02:05:56;97391.03;;;1.82;88.82
63535;BME280;55128;50.230;18.944;2024-01-06T02:10:57;97394.31;;;1.87;88.17
63535;BME280;55128;50.230;18.944;2024-01-06T02:15:57;97401.69;;;1.74;88.87
63535;BME280;55128;50.230;18.944;2024-01-06T02:20:59;97392.16;;;1.73;88.47
63535;BME280;55128;50.230;18.944;2024-01-06T02:25:59;97391.81;;;1.84;88.53
63535;BME280;55128;50.230;18.944;2024-01-06T02:31:00;97390.50;;;1.71;88.93
63535;BME280;55128;50.230;18.944;2024-01-06T02:36:00;97384.88;;;1.83;88.67
63535;BME280;55128;50.230;18.944;2024-01-06T02:41:00;97369.41;;;2.04;87.98
63535;BME280;55128;50.230;18.944;2024-01-06T02:46:01;97362.75;;;1.93;88.49
63535;BME280;55128;50.230;18.944;2024-01-06T02:51:01;97362.38;;;2.04;87.67
63535;BME280;55128;50.230;18.944;2024-01-06T02:56:02;97368.91;;;1.91;88.46
63535;BME280;55128;50.230;18.944;2024-01-06T03:01:02;97364.38;;;1.98;88.20
63535;BME280;55128;50.230;18.944;2024-01-06T03:06:03;97363.31;;;2.03;88.23
63535;BME280;55128;50.230;18.944;2024-01-06T03:11:03;97367.69;;;2.03;88.20
63535;BME280;55128;50.230;18.944;2024-01-06T03:16:05;97357.81;;;2.11;88.13
63535;BME280;55128;50.230;18.944;2024-01-06T03:21:19;97353.56;;;2.08;87.91
63535;BME280;55128;50.230;18.944;2024-01-06T03:26:20;97359.44;;;2.15;88.66
63535;BME280;55128;50.230;18.944;2024-01-06T03:31:20;97354.75;;;2.25;88.21
63535;BME280;55128;50.230;18.944;2024-01-06T03:36:22;97361.75;;;2.24;88.08
63535;BME280;55128;50.230;18.944;2024-01-06T03:41:22;97351.69;;;2.39;87.77
63535;BME280;55128;50.230;18.944;2024-01-06T03:46:23;97356.75;;;2.43;87.79
63535;BME280;55128;50.230;18.944;2024-01-06T03:51:23;97345.88;;;2.29;88.06
63535;BME280;55128;50.230;18.944;2024-01-06T03:56:24;97351.00;;;2.07;88.63
63535;BME280;55128;50.230;18.944;2024-01-06T04:01:24;97362.81;;;2.19;89.27
63535;BME280;55128;50.230;18.944;2024-01-06T04:06:24;97361.19;;;2.41;89.20
63535;BME280;55128;50.230;18.944;2024-01-06T04:11:25;97365.63;;;2.64;87.71
63535;BME280;55128;50.230;18.944;2024-01-06T04:16:26;97378.13;;;2.81;87.33
63535;BME280;55128;50.230;18.944;2024-01-06T04:21:27;97375.47;;;2.83;87.18
63535;BME280;55128;50.230;18.944;2024-01-06T04:26:27;97378.56;;;2.94;86.75
63535;BME280;55128;50.230;18.944;2024-01-06T04:31:28;97378.47;;;2.97;86.55
63535;BME280;55128;50.230;18.944;2024-01-06T04:36:28;97373.09;;;3.00;86.66
63535;BME280;55128;50.230;18.944;2024-01-06T04:41:29;97379.09;;;3.04;86.56
63535;BME280;55128;50.230;18.944;2024-01-06T04:46:29;97373.31;;;2.94;86.47
63535;BME280;55128;50.230;18.944;2024-01-06T04:51:30;97375.28;;;3.13;86.24
63535;BME280;55128;50.230;18.944;2024-01-06T04:56:31;97369.13;;;3.14;86.50
63535;BME280;55128;50.230;18.944;2024-01-06T05:01:31;97373.91;;;3.26;85.77
63535;BME280;55128;50.230;18.944;2024-01-06T05:06:32;97379.50;;;3.40;85.72
63535;BME280;55128;50.230;18.944;2024-01-06T05:11:32;97382.97;;;3.41;85.64
63535;BME280;55128;50.230;18.944;2024-01-06T05:16:33;97373.13;;;3.47;85.23
63535;BME280;55128;50.230;18.944;2024-01-06T05:21:34;97385.16;;;3.53;85.14
63535;BME280;55128;50.230;18.944;2024-01-06T05:26:34;97390.81;;;3.42;85.32
63535;BME280;55128;50.230;18.944;2024-01-06T05:31:35;97387.78;;;3.29;85.75
63535;BME280;55128;50.230;18.944;2024-01-06T05:36:35;97386.75;;;3.34;85.39
63535;BME280;55128;50.230;18.944;2024-01-06T05:41:39;97389.50;;;3.30;85.71
63535;BME280;55128;50.230;18.944;2024-01-06T05:46:39;97387.59;;;3.58;85.64
63535;BME280;55128;50.230;18.944;2024-01-06T05:51:46;97393.84;;;3.77;85.28
63535;BME280;55128;50.230;18.944;2024-01-06T05:56:46;97381.69;;;3.75;84.97
63535;BME280;55128;50.230;18.944;2024-01-06T06:01:47;97383.13;;;3.83;85.25
63535;BME280;55128;50.230;18.944;2024-01-06T06:06:47;97387.34;;;3.87;85.03
63535;BME280;55128;50.230;18.944;2024-01-06T06:11:47;97400.88;;;3.99;84.75
63535;BME280;55128;50.230;18.944;2024-01-06T06:16:48;97398.63;;;3.89;85.07
63535;BME280;55128;50.230;18.944;2024-01-06T06:21:49;97406.03;;;4.02;84.64
63535;BME280;55128;50.230;18.944;2024-01-06T06:26:49;97405.41;;;3.95;84.95
63535;BME280;55128;50.230;18.944;2024-01-06T06:31:49;97410.25;;;4.06;84.78
63535;BME280;55128;50.230;18.944;2024-01-06T06:36:50;97417.00;;;3.89;84.73
63535;BME280;55128;50.230;18.944;2024-01-06T06:41:50;97414.06;;;3.97;85.01
63535;BME280;55128;50.230;18.944;2024-01-06T06:46:51;97411.38;;;3.99;85.49
63535;BME280;55128;50.230;18.944;2024-01-06T06:51:51;97412.28;;;3.76;85.51
63535;BME280;55128;50.230;18.944;2024-01-06T06:56:51;97422.09;;;3.47;86.33
63535;BME280;55128;50.230;18.944;2024-01-06T07:01:52;97431.03;;;3.41;87.03
63535;BME280;55128;50.230;18.944;2024-01-06T07:06:52;97432.88;;;3.63;86.72
63535;BME280;55128;50.230;18.944;2024-01-06T07:11:52;97438.94;;;3.65;85.81
63535;BME280;55128;50.230;18.944;2024-01-06T07:16:53;97438.63;;;3.73;85.98
63535;BME280;55128;50.230;18.944;2024-01-06T07:21:53;97438.13;;;3.63;86.06
63535;BME280;55128;50.230;18.944;2024-01-06T07:26:56;97443.19;;;3.67;86.45
63535;BME280;55128;50.230;18.944;2024-01-06T07:31:56;97438.28;;;3.82;85.96
63535;BME280;55128;50.230;18.944;2024-01-06T07:36:57;97447.34;;;3.73;85.73
63535;BME280;55128;50.230;18.944;2024-01-06T07:41:57;97446.41;;;3.76;86.17
63535;BME280;55128;50.230;18.944;2024-01-06T07:46:58;97448.03;;;4.02;85.59
63535;BME280;55128;50.230;18.944;2024-01-06T07:51:58;97444.25;;;4.31;85.14
63535;BME280;55128;50.230;18.944;2024-01-06T07:56:59;97443.41;;;4.31;84.79
63535;BME280;55128;50.230;18.944;2024-01-06T08:01:59;97457.63;;;4.25;85.38
63535;BME280;55128;50.230;18.944;2024-01-06T08:06:59;97459.97;;;4.33;84.79
63535;BME280;55128;50.230;18.944;2024-01-06T08:12:00;97473.94;;;4.55;85.15
63535;BME280;55128;50.230;18.944;2024-01-06T08:17:00;97474.34;;;4.66;84.75
63535;BME280;55128;50.230;18.944;2024-01-06T08:22:01;97479.19;;;4.55;84.39
63535;BME280;55128;50.230;18.944;2024-01-06T08:27:01;97473.50;;;4.66;84.45
63535;BME280;55128;50.230;18.944;2024-01-06T08:32:02;97489.06;;;4.71;84.90
63535;BME280;55128;50.230;18.944;2024-01-06T08:37:03;97486.22;;;4.97;84.24
63535;BME280;55128;50.230;18.944;2024-01-06T08:42:04;97489.41;;;5.26;84.82
63535;BME280;55128;50.230;18.944;2024-01-06T08:47:04;97487.28;;;5.34;83.98
63535;BME280;55128;50.230;18.944;2024-01-06T08:52:05;97495.47;;;5.28;83.01
63535;BME280;55128;50.230;18.944;2024-01-06T08:57:05;97498.59;;;5.36;83.00
63535;BME280;55128;50.230;18.944;2024-01-06T09:02:06;97493.09;;;5.22;83.31
63535;BME280;55128;50.230;18.944;2024-01-06T09:07:07;97499.22;;;5.22;83.49
63535;BME280;55128;50.230;18.944;2024-01-06T09:12:08;97494.84;;;5.42;83.17
63535;BME280;55128;50.230;18.944;2024-01-06T09:17:08;97497.81;;;5.55;82.17
63535;BME280;55128;50.230;18.944;2024-01-06T09:22:09;97498.34;;;5.42;81.95
63535;BME280;55128;50.230;18.944;2024-01-06T09:27:09;97506.88;;;5.48;82.57
63535;BME280;55128;50.230;18.944;2024-01-06T09:32:10;97510.94;;;5.75;82.19
63535;BME280;55128;50.230;18.944;2024-01-06T09:37:10;97508.09;;;5.80;83.21
63535;BME280;55128;50.230;18.944;2024-01-06T09:42:10;97513.28;;;5.81;83.73
63535;BME280;55128;50.230;18.944;2024-01-06T09:47:12;97509.81;;;5.81;82.96
63535;BME280;55128;50.230;18.944;2024-01-06T09:52:14;97516.44;;;5.90;83.40
63535;BME280;55128;50.230;18.944;2024-01-06T09:57:20;97510.44;;;6.07;84.36
63535;BME280;55128;50.230;18.944;2024-01-06T10:02:21;97514.16;;;6.21;83.71
63535;BME280;55128;50.230;18.944;2024-01-06T10:07:23;97513.22;;;6.22;83.34
63535;BME280;55128;50.230;18.944;2024-01-06T10:12:24;97512.66;;;6.35;84.00
63535;BME280;55128;50.230;18.944;2024-01-06T10:17:25;97508.47;;;6.31;82.66
63535;BME280;55128;50.230;18.944;2024-01-06T10:22:25;97501.88;;;6.01;82.98
63535;BME280;55128;50.230;18.944;2024-01-06T10:27:26;97504.09;;;6.11;83.84
63535;BME280;55128;50.230;18.944;2024-01-06T10:32:26;97508.97;;;5.80;83.52
63535;BME280;55128;50.230;18.944;2024-01-06T10:37:29;97510.28;;;5.70;85.09
63535;BME280;55128;50.230;18.944;2024-01-06T10:42:30;97507.78;;;5.88;84.64
63535;BME280;55128;50.230;18.944;2024-01-06T10:47:32;97511.31;;;5.87;85.02
63535;BME280;55128;50.230;18.944;2024-01-06T10:52:33;97501.28;;;5.95;85.10
63535;BME280;55128;50.230;18.944;2024-01-06T10:57:37;97500.88;;;6.04;84.44
63535;BME280;55128;50.230;18.944;2024-01-06T11:02:39;97496.56;;;6.03;84.88
63535;BME280;55128;50.230;18.944;2024-01-06T11:07:40;97492.06;;;6.05;83.63
63535;BME280;55128;50.230;18.944;2024-01-06T11:12:43;97485.31;;;5.99;83.68
63535;BME280;55128;50.230;18.944;2024-01-06T11:17:51;97497.13;;;5.70;84.72
63535;BME280;55128;50.230;18.944;2024-01-06T11:23:22;97502.28;;;5.92;86.35
63535;BME280;55128;50.230;18.944;2024-01-06T11:28:22;97497.22;;;6.08;86.00
63535;BME280;55128;50.230;18.944;2024-01-06T11:33:22;97487.28;;;6.32;83.43
63535;BME280;55128;50.230;18.944;2024-01-06T11:38:25;97484.00;;;6.46;84.44
63535;BME280;55128;50.230;18.944;2024-01-06T11:43:26;97479.25;;;6.35;84.12
63535;BME280;55128;50.230;18.944;2024-01-06T11:48:31;97476.94;;;6.47;84.35
63535;BME280;55128;50.230;18.944;2024-01-06T11:53:37;97470.81;;;6.46;84.57
63535;BME280;55128;50.230;18.944;2024-01-06T11:58:41;97469.09;;;6.45;85.72
63535;BME280;55128;50.230;18.944;2024-01-06T12:03:42;97476.56;;;6.54;84.07
63535;BME280;55128;50.230;18.944;2024-01-06T12:08:45;97469.09;;;6.45;84.60
63535;BME280;55128;50.230;18.944;2024-01-06T12:19:34;97476.50;;;6.56;84.76
63535;BME280;55128;50.230;18.944;2024-01-06T12:24:38;97475.78;;;6.52;86.00
63535;BME280;55128;50.230;18.944;2024-01-06T12:29:44;97485.19;;;6.58;85.77
63535;BME280;55128;50.230;18.944;2024-01-06T12:34:47;97487.91;;;6.37;84.56
63535;BME280;55128;50.230;18.944;2024-01-06T12:39:50;97501.41;;;6.12;86.75
63535;BME280;55128;50.230;18.944;2024-01-06T12:44:57;97489.78;;;6.35;86.08
63535;BME280;55128;50.230;18.944;2024-01-06T12:50:08;97493.22;;;6.18;85.99
63535;BME280;55128;50.230;18.944;2024-01-06T12:55:29;97496.41;;;5.85;86.49
63535;BME280;55128;50.230;18.944;2024-01-06T13:00:35;97492.72;;;5.71;87.66
63535;BME280;55128;50.230;18.944;2024-01-06T13:06:03;97499.66;;;5.53;87.69
63535;BME280;55128;50.230;18.944;2024-01-06T13:11:04;97496.69;;;5.40;88.23
63535;BME280;55128;50.230;18.944;2024-01-06T13:16:12;97498.81;;;5.32;88.87
63535;BME280;55128;50.230;18.944;2024-01-06T13:21:23;97509.13;;;5.36;88.63
63535;BME280;55128;50.230;18.944;2024-01-06T13:26:45;97520.19;;;5.44;88.42
63535;BME280;55128;50.230;18.944;2024-01-06T13:32:00;97516.50;;;5.49;87.97
63535;BME280;55128;50.230;18.944;2024-01-06T13:54:17;97521.34;;;4.96;89.94
63535;BME280;55128;50.230;18.944;2024-01-06T13:59:37;97528.56;;;4.91;89.55
63535;BME280;55128;50.230;18.944;2024-01-06T14:05:04;97538.34;;;4.87;89.47
63535;BME280;55128;50.230;18.944;2024-01-06T14:10:25;97548.91;;;4.86;88.54
63535;BME280;55128;50.230;18.944;2024-01-06T14:21:07;97561.94;;;4.21;88.98
63535;BME280;55128;50.230;18.944;2024-01-06T14:26:39;97556.81;;;4.18;89.18
63535;BME280;55128;50.230;18.944;2024-01-06T14:31:58;97564.19;;;3.85;89.07
63535;BME280;55128;50.230;18.944;2024-01-06T14:37:13;97570.50;;;4.03;89.67
63535;BME280;55128;50.230;18.944;2024-01-06T14:42:41;97564.56;;;3.74;89.81
63535;BME280;55128;50.230;18.944;2024-01-06T14:47:57;97556.16;;;3.64;90.23
63535;BME280;55128;50.230;18.944;2024-01-06T14:59:02;97575.38;;;3.65;89.92
63535;BME280;55128;50.230;18.944;2024-01-06T15:04:05;97586.19;;;3.56;89.04
63535;BME280;55128;50.230;18.944;2024-01-06T15:14:50;97595.13;;;3.25;89.62
63535;BME280;55128;50.230;18.944;2024-01-06T15:20:18;97599.34;;;3.29;90.57
63535;BME280;55128;50.230;18.944;2024-01-06T15:25:21;97603.53;;;3.35;89.91
63535;BME280;55128;50.230;18.944;2024-01-06T15:30:38;97607.81;;;3.37;89.83
63535;BME280;55128;50.230;18.944;2024-01-06T15:35:52;97617.50;;;3.08;90.10
63535;BME280;55128;50.230;18.944;2024-01-06T15:40:56;97620.50;;;2.96;90.72
63535;BME280;55128;50.230;18.944;2024-01-06T15:46:09;97618.50;;;3.04;90.87
63535;BME280;55128;50.230;18.944;2024-01-06T15:51:21;97623.53;;;2.84;91.32
63535;BME280;55128;50.230;18.944;2024-01-06T15:56:27;97627.16;;;2.80;91.79
63535;BME280;55128;50.230;18.944;2024-01-06T16:01:44;97629.53;;;2.87;91.41
63535;BME280;55128;50.230;18.944;2024-01-06T16:07:06;97634.09;;;2.81;91.88
63535;BME280;55128;50.230;18.944;2024-01-06T16:12:57;97635.75;;;2.83;91.72
63535;BME280;55128;50.230;18.944;2024-01-06T16:18:23;97623.38;;;2.60;92.59
63535;BME280;55128;50.230;18.944;2024-01-06T16:23:41;97632.47;;;2.77;92.32
63535;BME280;55128;50.230;18.944;2024-01-06T16:28:51;97634.09;;;2.81;92.08
63535;BME280;55128;50.230;18.944;2024-01-06T16:39:50;97636.19;;;2.69;91.86
63535;BME280;55128;50.230;18.944;2024-01-06T16:50:19;97634.47;;;2.68;91.45
63535;BME280;55128;50.230;18.944;2024-01-06T16:55:36;97642.66;;;2.58;91.10
63535;BME280;55128;50.230;18.944;2024-01-06T17:00:56;97637.59;;;2.51;92.14
63535;BME280;55128;50.230;18.944;2024-01-06T17:06:06;97642.25;;;2.42;91.42
63535;BME280;55128;50.230;18.944;2024-01-06T17:11:12;97653.47;;;2.45;91.38
63535;BME280;55128;50.230;18.944;2024-01-06T17:16:15;97658.28;;;2.31;90.99
63535;BME280;55128;50.230;18.944;2024-01-06T17:21:32;97659.22;;;2.28;91.62
63535;BME280;55128;50.230;18.944;2024-01-06T17:26:55;97665.69;;;2.15;91.22
63535;BME280;55128;50.230;18.944;2024-01-06T17:31:58;97662.56;;;2.02;91.63
63535;BME280;55128;50.230;18.944;2024-01-06T17:36:58;97665.47;;;2.23;91.38
63535;BME280;55128;50.230;18.944;2024-01-06T17:42:00;97662.09;;;2.19;90.85
63535;BME280;55128;50.230;18.944;2024-01-06T17:52:57;97664.38;;;1.99;90.68
63535;BME280;55128;50.230;18.944;2024-01-06T17:57:58;97665.28;;;1.99;90.52
63535;BME280;55128;50.230;18.944;2024-01-06T18:02:58;97675.09;;;1.89;91.18
63535;BME280;55128;50.230;18.944;2024-01-06T18:08:27;97680.63;;;1.79;90.84
63535;BME280;55128;50.230;18.944;2024-01-06T18:13:30;97670.53;;;1.65;91.17
63535;BME280;55128;50.230;18.944;2024-01-06T18:18:38;97677.88;;;1.50;91.93
63535;BME280;55128;50.230;18.944;2024-01-06T18:23:38;97682.91;;;1.58;91.62
63535;BME280;55128;50.230;18.944;2024-01-06T18:28:41;97686.84;;;1.39;92.15
63535;BME280;55128;50.230;18.944;2024-01-06T18:33:45;97684.06;;;1.46;92.77
63535;BME280;55128;50.230;18.944;2024-01-06T18:38:47;97685.00;;;1.44;91.94
63535;BME280;55128;50.230;18.944;2024-01-06T18:43:48;97688.38;;;1.49;91.85
63535;BME280;55128;50.230;18.944;2024-01-06T18:48:51;97685.06;;;1.41;91.44
63535;BME280;55128;50.230;18.944;2024-01-06T18:53:54;97686.59;;;1.49;92.07
63535;BME280;55128;50.230;18.944;2024-01-06T18:58:54;97687.66;;;1.42;91.47
63535;BME280;55128;50.230;18.944;2024-01-06T19:04:00;97687.03;;;1.31;91.99
63535;BME280;55128;50.230;18.944;2024-01-06T19:09:03;97695.94;;;1.24;91.79
63535;BME280;55128;50.230;18.944;2024-01-06T19:14:04;97700.16;;;1.29;92.07
63535;BME280;55128;50.230;18.944;2024-01-06T19:19:07;97693.75;;;1.43;92.37
63535;BME280;55128;50.230;18.944;2024-01-06T19:24:08;97689.75;;;1.28;91.42
63535;BME280;55128;50.230;18.944;2024-01-06T19:29:09;97697.22;;;1.07;92.31
63535;BME280;55128;50.230;18.944;2024-01-06T19:34:10;97701.09;;;0.89;92.60
63535;BME280;55128;50.230;18.944;2024-01-06T19:39:11;97701.94;;;0.90;93.32
63535;BME280;55128;50.230;18.944;2024-01-06T19:44:13;97702.66;;;0.96;92.75
63535;BME280;55128;50.230;18.944;2024-01-06T19:49:44;97710.31;;;1.06;92.76
63535;BME280;55128;50.230;18.944;2024-01-06T19:55:14;97706.38;;;0.86;92.58
63535;BME280;55128;50.230;18.944;2024-01-06T20:00:17;97712.50;;;0.85;92.47
63535;BME280;55128;50.230;18.944;2024-01-06T20:05:20;97708.97;;;0.86;92.96
63535;BME280;55128;50.230;18.944;2024-01-06T20:10:23;97707.09;;;0.93;92.00
63535;BME280;55128;50.230;18.944;2024-01-06T20:15:25;97706.53;;;0.78;92.85
63535;BME280;55128;50.230;18.944;2024-01-06T20:20:26;97707.88;;;0.98;92.30
63535;BME280;55128;50.230;18.944;2024-01-06T20:25:28;97698.91;;;0.69;92.30
63535;BME280;55128;50.230;18.944;2024-01-06T20:30:48;97709.13;;;0.80;92.26
63535;BME280;55128;50.230;18.944;2024-01-06T20:36:07;97707.78;;;0.62;92.45
63535;BME280;55128;50.230;18.944;2024-01-06T20:41:13;97706.03;;;0.61;92.11
63535;BME280;55128;50.230;18.944;2024-01-06T20:46:18;97719.03;;;0.66;92.66
63535;BME280;55128;50.230;18.944;2024-01-06T20:51:26;97718.09;;;0.68;92.69
63535;BME280;55128;50.230;18.944;2024-01-06T20:56:29;97724.47;;;0.55;92.13
63535;BME280;55128;50.230;18.944;2024-01-06T21:01:37;97737.59;;;0.50;92.26
63535;BME280;55128;50.230;18.944;2024-01-06T21:06:48;97726.59;;;0.36;92.38
63535;BME280;55128;50.230;18.944;2024-01-06T21:12:06;97725.69;;;0.37;93.17
63535;BME280;55128;50.230;18.944;2024-01-06T21:17:36;97727.97;;;0.52;92.83
63535;BME280;55128;50.230;18.944;2024-01-06T21:23:06;97732.47;;;0.46;92.44
63535;BME280;55128;50.230;18.944;2024-01-06T21:28:18;97727.75;;;0.21;92.49
63535;BME280;55128;50.230;18.944;2024-01-06T21:33:26;97737.88;;;0.36;92.97
63535;BME280;55128;50.230;18.944;2024-01-06T21:38:26;97741.94;;;0.51;92.41
63535;BME280;55128;50.230;18.944;2024-01-06T21:43:39;97743.25;;;0.29;92.06
63535;BME280;55128;50.230;18.944;2024-01-06T21:48:40;97734.50;;;0.31;92.43
63535;BME280;55128;50.230;18.944;2024-01-06T21:54:04;97740.06;;;0.13;91.61
63535;BME280;55128;50.230;18.944;2024-01-06T21:59:09;97745.53;;;-0.01;91.71
63535;BME280;55128;50.230;18.944;2024-01-06T22:04:12;97744.66;;;0.00;92.38
63535;BME280;55128;50.230;18.944;2024-01-06T22:09:17;97750.13;;;-0.15;92.26
63535;BME280;55128;50.230;18.944;2024-01-06T22:14:27;97754.22;;;-0.01;92.62
63535;BME280;55128;50.230;18.944;2024-01-06T22:19:27;97746.56;;;-0.11;92.43
63535;BME280;55128;50.230;18.944;2024-01-06T22:24:28;97754.38;;;-0.10;92.31
63535;BME280;55128;50.230;18.944;2024-01-06T22:29:29;97753.34;;;-0.01;91.88
63535;BME280;55128;50.230;18.944;2024-01-06T22:34:43;97750.94;;;-0.12;91.50
63535;BME280;55128;50.230;18.944;2024-01-06T22:39:49;97750.75;;;-0.01;91.74
63535;BME280;55128;50.230;18.944;2024-01-06T22:44:51;97761.53;;;-0.21;91.77
63535;BME280;55128;50.230;18.944;2024-01-06T22:49:59;97752.03;;;-0.25;91.85
63535;BME280;55128;50.230;18.944;2024-01-06T22:54:59;97747.75;;;-0.28;91.41
63535;BME280;55128;50.230;18.944;2024-01-06T23:00:00;97765.31;;;-0.41;91.60
63535;BME280;55128;50.230;18.944;2024-01-06T23:05:04;97766.25;;;-0.43;92.01
63535;BME280;55128;50.230;18.944;2024-01-06T23:10:08;97767.84;;;-0.36;91.69
63535;BME280;55128;50.230;18.944;2024-01-06T23:15:10;97775.78;;;-0.44;91.84
63535;BME280;55128;50.230;18.944;2024-01-06T23:20:12;97777.63;;;-0.49;91.75
63535;BME280;55128;50.230;18.944;2024-01-06T23:25:15;97768.19;;;-0.57;91.69
63535;BME280;55128;50.230;18.944;2024-01-06T23:30:15;97769.25;;;-0.69;91.28
63535;BME280;55128;50.230;18.944;2024-01-06T23:35:16;97778.66;;;-0.61;91.53
63535;BME280;55128;50.230;18.944;2024-01-06T23:40:16;97777.03;;;-0.68;91.64
63535;BME280;55128;50.230;18.944;2024-01-06T23:45:17;97780.44;;;-0.64;90.89
63535;BME280;55128;50.230;18.944;2024-01-06T23:50:18;97785.19;;;-0.92;90.63
63535;BME280;55128;50.230;18.944;2024-01-06T23:55:18;97772.16;;;-0.91;91.88
